createdAt,value
2018-04-07T00:02:01.408Z,11.40
2018-04-07T00:04:29.779Z,11.38
2018-04-07T00:06:58.161Z,11.22
2018-04-07T00:09:26.518Z,11.34
2018-04-07T00:11:55.027Z,11.47
2018-04-07T00:14:23.394Z,11.28
2018-04-07T00:16:51.744Z,11.18
2018-04-07T00:19:20.123Z,11.32
2018-04-07T00:21:48.475Z,11.49
2018-04-07T00:24:16.988Z,11.35
2018-04-07T00:26:45.349Z,11.53
2018-04-07T00:29:13.786Z,11.28
2018-04-07T00:31:42.134Z,11.61
2018-04-07T00:34:10.477Z,11.55
2018-04-07T00:36:38.885Z,11.37
2018-04-07T00:39:07.248Z,11.35
2018-04-07T00:41:35.596Z,11.40
2018-04-07T00:44:03.960Z,12.03
2018-04-07T00:46:32.351Z,11.72
2018-04-07T00:49:00.712Z,11.91
2018-04-07T00:51:29.075Z,12.02
2018-04-07T00:53:57.435Z,12.29
2018-04-07T00:56:25.810Z,11.97
2018-04-07T00:58:54.263Z,11.61
2018-04-07T01:01:22.624Z,11.83
2018-04-07T01:03:50.983Z,11.80
2018-04-07T01:06:19.446Z,12.29
2018-04-07T01:08:47.793Z,12.14
2018-04-07T01:11:16.176Z,11.86
2018-04-07T01:13:44.527Z,11.75
2018-04-07T01:16:12.882Z,12.26
2018-04-07T01:18:41.241Z,11.75
2018-04-07T01:21:09.603Z,11.45
2018-04-07T01:23:37.946Z,11.74
2018-04-07T01:26:06.291Z,11.50
2018-04-07T01:28:34.712Z,12.03
2018-04-07T01:31:03.081Z,12.00
2018-04-07T01:33:31.482Z,11.73
2018-04-07T01:35:59.836Z,11.00
2018-04-07T01:38:28.198Z,12.28
2018-04-07T01:40:56.561Z,11.30
2018-04-07T01:43:24.927Z,11.83
2018-04-07T01:45:53.297Z,11.04
2018-04-07T01:48:21.659Z,11.64
2018-04-07T01:50:50.071Z,12.00
2018-04-07T01:53:18.429Z,11.84
2018-04-07T01:55:46.951Z,11.39
2018-04-07T01:58:15.309Z,11.34
2018-04-07T02:00:43.740Z,11.62
2018-04-07T02:03:12.145Z,11.19
2018-04-07T02:05:40.498Z,11.08
2018-04-07T02:08:08.893Z,11.07
2018-04-07T02:10:37.259Z,11.44
2018-04-07T02:13:05.724Z,11.69
2018-04-07T02:15:34.076Z,11.21
2018-04-07T02:18:02.463Z,11.65
2018-04-07T02:20:30.843Z,11.26
2018-04-07T02:22:59.204Z,11.63
2018-04-07T02:25:27.599Z,11.45
2018-04-07T02:27:55.960Z,10.90
2018-04-07T02:30:24.392Z,11.12
2018-04-07T02:32:52.774Z,11.47
2018-04-07T02:35:21.146Z,11.43
2018-04-07T02:37:49.529Z,11.13
2018-04-07T02:40:17.927Z,11.22
2018-04-07T02:42:46.391Z,11.39
2018-04-07T02:45:14.771Z,11.21
2018-04-07T02:47:43.164Z,10.99
2018-04-07T02:50:11.633Z,11.67
2018-04-07T02:52:40.013Z,11.68
2018-04-07T02:55:08.565Z,11.72
2018-04-07T02:57:36.956Z,11.02
2018-04-07T03:00:30.713Z,11.69
2018-04-07T03:02:59.086Z,11.43
2018-04-07T03:05:27.625Z,11.80
2018-04-07T03:07:55.995Z,11.85
2018-04-07T03:10:24.352Z,11.84
2018-04-07T03:12:52.815Z,11.24
2018-04-07T03:15:21.198Z,11.35
2018-04-07T03:17:49.629Z,11.74
2018-04-07T03:20:17.988Z,11.75
2018-04-07T03:22:46.348Z,11.59
2018-04-07T03:25:14.719Z,11.83
2018-04-07T03:27:43.084Z,11.74
2018-04-07T03:30:11.584Z,11.55
2018-04-07T03:32:40.032Z,11.71
2018-04-07T03:35:08.390Z,11.94
2018-04-07T03:37:36.756Z,12.01
2018-04-07T03:40:05.126Z,11.61
2018-04-07T03:42:33.532Z,12.05
2018-04-07T03:45:01.899Z,11.59
2018-04-07T03:47:30.309Z,11.74
2018-04-07T03:49:58.674Z,12.23
2018-04-07T03:52:27.139Z,11.76
2018-04-07T03:54:55.504Z,11.86
2018-04-07T03:57:23.863Z,11.37
2018-04-07T03:59:52.228Z,10.90
2018-04-07T04:02:20.653Z,11.11
2018-04-07T04:04:49.059Z,11.70
2018-04-07T04:07:17.435Z,11.40
2018-04-07T04:09:45.789Z,11.73
2018-04-07T04:12:14.170Z,11.63
2018-04-07T04:14:42.604Z,10.62
2018-04-07T04:17:10.955Z,10.84
2018-04-07T04:19:39.325Z,10.85
2018-04-07T04:22:07.688Z,11.53
2018-04-07T04:24:36.142Z,11.73
2018-04-07T04:27:04.573Z,12.05
2018-04-07T04:29:32.930Z,11.47
2018-04-07T04:32:01.294Z,11.33
2018-04-07T04:34:29.668Z,11.60
2018-04-07T04:36:58.023Z,10.86
2018-04-07T04:39:26.484Z,10.80
2018-04-07T04:41:54.882Z,11.37
2018-04-07T04:44:23.284Z,11.77
2018-04-07T04:46:51.671Z,11.74
2018-04-07T04:49:20.046Z,11.40
2018-04-07T04:51:48.514Z,11.47
2018-04-07T04:54:16.915Z,11.83
2018-04-07T04:56:45.426Z,11.70
2018-04-07T04:59:13.885Z,12.27
2018-04-07T05:01:42.272Z,11.51
2018-04-07T05:04:10.833Z,11.92
2018-04-07T05:06:39.311Z,11.70
2018-04-07T05:09:07.701Z,12.33
2018-04-07T05:11:36.106Z,12.15
2018-04-07T05:14:04.491Z,12.60
2018-04-07T05:16:33.049Z,12.59
2018-04-07T05:19:01.445Z,11.41
2018-04-07T05:21:29.834Z,12.80
2018-04-07T05:23:58.318Z,12.27
2018-04-07T05:26:26.707Z,11.69
2018-04-07T05:28:55.156Z,12.25
2018-04-07T05:31:23.527Z,12.80
2018-04-07T05:33:51.899Z,13.54
2018-04-07T05:36:20.271Z,13.05
2018-04-07T05:38:48.699Z,13.07
2018-04-07T05:41:17.058Z,13.66
2018-04-07T05:43:45.444Z,13.24
2018-04-07T05:46:13.807Z,13.28
2018-04-07T05:48:42.167Z,12.56
2018-04-07T05:51:10.531Z,12.86
2018-04-07T05:53:38.962Z,13.42
2018-04-07T05:56:07.388Z,12.61
2018-04-07T05:58:35.778Z,12.67
2018-04-07T06:01:04.131Z,12.85
2018-04-07T06:03:32.508Z,12.73
2018-04-07T06:06:01.037Z,13.32
2018-04-07T06:08:29.571Z,13.89
2018-04-07T06:10:57.949Z,13.23
2018-04-07T06:13:26.327Z,13.41
2018-04-07T06:15:54.694Z,13.22
2018-04-07T06:18:23.052Z,13.97
2018-04-07T06:20:51.413Z,14.10
2018-04-07T06:23:19.788Z,14.86
2018-04-07T06:25:48.251Z,15.80
2018-04-07T06:28:16.657Z,18.34
2018-04-07T06:30:45.073Z,19.95
2018-04-07T06:33:13.468Z,20.37
2018-04-07T06:35:41.849Z,21.60
2018-04-07T06:38:10.302Z,21.73
2018-04-07T06:40:38.700Z,22.18
2018-04-07T06:43:07.104Z,21.67
2018-04-07T06:45:35.495Z,23.35
2018-04-07T06:48:03.933Z,23.59
2018-04-07T06:50:32.368Z,25.88
2018-04-07T06:53:00.760Z,25.35
2018-04-07T06:55:29.161Z,24.98
2018-04-07T06:57:57.565Z,25.61
2018-04-07T07:00:25.955Z,24.93
2018-04-07T07:02:54.455Z,24.95
2018-04-07T07:05:22.929Z,26.11
2018-04-07T07:07:51.367Z,26.58
2018-04-07T07:10:19.765Z,26.22
2018-04-07T07:12:48.175Z,24.15
2018-04-07T07:15:16.620Z,24.18
2018-04-07T07:17:45.034Z,25.76
2018-04-07T07:20:13.408Z,26.74
2018-04-07T07:22:41.820Z,24.52
2018-04-07T07:25:10.330Z,26.72
2018-04-07T07:27:38.712Z,26.64
2018-04-07T07:30:07.118Z,27.47
2018-04-07T07:32:35.568Z,28.24
2018-04-07T07:35:03.973Z,27.72
2018-04-07T07:37:32.374Z,27.41
2018-04-07T07:40:00.760Z,25.37
2018-04-07T07:42:29.189Z,26.07
2018-04-07T07:44:57.639Z,27.08
2018-04-07T07:47:26.079Z,27.76
2018-04-07T07:49:54.469Z,27.58
2018-04-07T07:52:22.858Z,29.51
2018-04-07T07:54:51.265Z,28.77
2018-04-07T07:57:19.647Z,29.39
2018-04-07T07:59:48.007Z,29.43
2018-04-07T08:02:16.406Z,30.75
2018-04-07T08:04:44.768Z,30.07
2018-04-07T08:07:13.297Z,30.86
2018-04-07T08:09:41.659Z,30.72
2018-04-07T08:12:10.051Z,30.51
2018-04-07T08:14:38.540Z,30.87
2018-04-07T08:17:06.915Z,28.89
2018-04-07T08:19:35.367Z,30.47
2018-04-07T08:22:03.738Z,30.95
2018-04-07T08:24:32.138Z,29.39
2018-04-07T08:27:00.635Z,29.95
2018-04-07T08:29:29.046Z,30.75
2018-04-07T08:31:57.485Z,30.79
2018-04-07T08:34:25.870Z,33.47
2018-04-07T08:36:54.248Z,32.92
2018-04-07T08:39:22.677Z,33.17
2018-04-07T08:41:51.082Z,33.42
2018-04-07T08:44:19.439Z,31.13
2018-04-07T08:46:47.854Z,30.07
2018-04-07T08:49:16.292Z,28.91
2018-04-07T08:51:44.706Z,29.98
2018-04-07T08:54:13.186Z,29.41
2018-04-07T08:56:41.581Z,31.13
2018-04-07T08:59:10.223Z,30.64
2018-04-07T09:01:38.714Z,34.04
2018-04-07T09:04:07.121Z,31.69
2018-04-07T09:06:35.528Z,33.88
2018-04-07T09:09:04.132Z,32.29
2018-04-07T09:11:32.600Z,32.55
2018-04-07T09:14:00.992Z,30.39
2018-04-07T09:16:29.463Z,34.01
2018-04-07T09:18:57.851Z,32.80
2018-04-07T09:21:26.231Z,32.79
2018-04-07T09:23:54.660Z,33.48
2018-04-07T09:26:23.054Z,31.78
2018-04-07T09:28:51.455Z,32.17
2018-04-07T09:31:25.795Z,32.31
2018-04-07T09:33:54.193Z,33.89
2018-04-07T09:36:22.578Z,32.20
2018-04-07T09:38:50.971Z,32.38
2018-04-07T09:41:19.432Z,33.66
2018-04-07T09:43:47.927Z,33.22
2018-04-07T09:46:16.307Z,33.06
2018-04-07T09:48:44.725Z,33.67
2018-04-07T09:51:13.128Z,32.48
2018-04-07T09:53:41.604Z,32.32
2018-04-07T09:56:10.082Z,32.40
2018-04-07T09:58:38.491Z,34.40
2018-04-07T10:01:06.928Z,33.17
2018-04-07T10:03:35.353Z,32.55
2018-04-07T10:06:03.744Z,32.75
2018-04-07T10:08:32.196Z,31.45
2018-04-07T10:11:00.672Z,30.79
2018-04-07T10:13:29.092Z,30.83
2018-04-07T10:15:57.497Z,31.58
2018-04-07T10:18:25.906Z,30.25
2018-04-07T10:20:54.301Z,31.72
2018-04-07T10:23:22.692Z,32.90
2018-04-07T10:25:51.063Z,33.84
2018-04-07T10:28:19.553Z,33.11
2018-04-07T10:30:47.921Z,33.47
2018-04-07T10:33:16.289Z,32.75
2018-04-07T10:35:44.643Z,32.62
2018-04-07T10:38:13.012Z,32.07
2018-04-07T10:40:41.438Z,30.89
2018-04-07T10:43:09.837Z,30.30
2018-04-07T10:45:38.193Z,29.83
2018-04-07T10:48:06.551Z,28.91
2018-04-07T10:50:34.917Z,30.99
2018-04-07T10:53:03.380Z,29.71
2018-04-07T10:55:31.755Z,30.71
2018-04-07T10:58:00.225Z,28.86
2018-04-07T11:00:28.707Z,28.71
2018-04-07T11:02:57.077Z,29.25
2018-04-07T11:05:25.605Z,28.81
2018-04-07T11:07:53.977Z,29.30
2018-04-07T11:10:22.443Z,29.06
2018-04-07T11:12:50.899Z,29.69
2018-04-07T11:15:19.305Z,29.55
2018-04-07T11:17:47.712Z,28.81
2018-04-07T11:20:16.171Z,29.22
2018-04-07T11:22:44.611Z,29.55
2018-04-07T11:25:13.009Z,31.09
2018-04-07T11:27:41.604Z,30.19
2018-04-07T11:30:10.027Z,30.21
2018-04-07T11:32:38.414Z,31.58
2018-04-07T11:35:07.835Z,30.44
2018-04-07T11:37:36.224Z,31.53
2018-04-07T11:40:04.936Z,30.78
2018-04-07T11:42:33.335Z,31.20
2018-04-07T11:45:01.776Z,32.28
2018-04-07T11:47:30.174Z,33.68
2018-04-07T11:49:58.535Z,33.33
2018-04-07T11:52:26.996Z,33.20
2018-04-07T11:54:55.477Z,32.23
2018-04-07T11:57:23.958Z,33.08
2018-04-07T11:59:52.400Z,33.58
2018-04-07T12:02:20.827Z,31.93
2018-04-07T12:04:49.320Z,30.98
2018-04-07T12:07:17.771Z,30.29
2018-04-07T12:09:46.166Z,30.92
2018-04-07T12:12:14.560Z,30.72
2018-04-07T12:14:42.997Z,30.57
2018-04-07T12:17:11.543Z,28.72
2018-04-07T12:19:39.998Z,28.27
2018-04-07T12:22:08.391Z,26.53
2018-04-07T12:24:36.812Z,25.70
2018-04-07T12:27:05.203Z,25.59
2018-04-07T12:29:33.658Z,25.19
2018-04-07T12:32:02.047Z,25.01
2018-04-07T12:34:30.436Z,24.91
2018-04-07T12:36:58.833Z,25.37
2018-04-07T12:39:27.220Z,25.36
2018-04-07T12:41:55.767Z,26.05
2018-04-07T12:44:24.143Z,26.56
2018-04-07T12:46:52.507Z,26.52
2018-04-07T12:49:20.871Z,25.18
2018-04-07T12:51:49.286Z,24.55
2018-04-07T12:54:17.739Z,24.13
2018-04-07T12:56:46.119Z,24.70
2018-04-07T12:59:14.495Z,25.70
2018-04-07T13:01:42.936Z,26.63
2018-04-07T13:04:11.341Z,25.88
2018-04-07T13:06:39.765Z,26.50
2018-04-07T13:09:08.137Z,25.15
2018-04-07T13:11:36.495Z,26.22
2018-04-07T13:14:05.819Z,25.47
2018-04-07T13:16:34.198Z,26.18
2018-04-07T13:19:02.604Z,26.15
2018-04-07T13:21:30.960Z,25.90
2018-04-07T13:23:59.379Z,25.67
2018-04-07T13:26:27.800Z,26.12
2018-04-07T13:28:57.091Z,24.77
2018-04-07T13:31:25.462Z,25.01
2018-04-07T13:33:53.874Z,24.40
2018-04-07T13:36:22.278Z,25.30
2018-04-07T13:38:50.714Z,25.80
2018-04-07T13:41:19.341Z,26.34
2018-04-07T13:43:47.715Z,25.00
2018-04-07T13:46:16.165Z,25.71
2018-04-07T13:48:44.590Z,25.58
2018-04-07T13:51:12.958Z,25.94
2018-04-07T13:53:41.370Z,24.25
2018-04-07T13:56:09.752Z,25.04
2018-04-07T13:58:38.204Z,25.48
2018-04-07T14:01:06.607Z,24.89
2018-04-07T14:03:35.042Z,24.77
2018-04-07T14:06:03.436Z,24.65
2018-04-07T14:08:31.935Z,25.09
2018-04-07T14:11:00.443Z,25.55
2018-04-07T14:13:28.821Z,25.70
2018-04-07T14:15:57.189Z,24.65
2018-04-07T14:18:25.582Z,25.15
2018-04-07T14:20:53.948Z,25.39
2018-04-07T14:23:22.330Z,24.98
2018-04-07T14:25:50.693Z,25.06
2018-04-07T14:28:19.155Z,25.40
2018-04-07T14:30:47.529Z,25.17
2018-04-07T14:33:15.918Z,24.38
2018-04-07T14:35:44.371Z,24.62
2018-04-07T14:38:12.715Z,24.92
2018-04-07T14:40:41.193Z,25.08
2018-04-07T14:43:09.667Z,24.72
2018-04-07T14:45:38.072Z,24.77
2018-04-07T14:48:06.437Z,25.25
2018-04-07T14:50:34.868Z,25.02
2018-04-07T14:53:03.236Z,24.85
2018-04-07T14:55:31.688Z,25.09
2018-04-07T14:58:00.080Z,25.51
2018-04-07T15:00:28.438Z,25.15
2018-04-07T15:02:56.825Z,24.07
2018-04-07T15:05:25.245Z,24.63
2018-04-07T15:07:53.619Z,25.12
2018-04-07T15:10:22.000Z,25.01
2018-04-07T15:12:50.488Z,25.77
2018-04-07T15:15:18.897Z,25.11
2018-04-07T15:17:47.354Z,25.25
2018-04-07T15:20:15.747Z,24.63
2018-04-07T15:22:44.125Z,24.81
2018-04-07T15:25:12.512Z,25.13
2018-04-07T15:27:40.938Z,24.94
2018-04-07T15:30:09.316Z,25.17
2018-04-07T15:32:37.874Z,24.66
2018-04-07T15:35:06.250Z,25.11
2018-04-07T15:37:34.621Z,24.73
2018-04-07T15:40:03.071Z,24.84
2018-04-07T15:42:31.463Z,23.81
2018-04-07T15:44:59.845Z,24.12
2018-04-07T15:47:29.197Z,24.41
2018-04-07T15:49:57.669Z,24.14
2018-04-07T15:52:26.095Z,23.93
2018-04-07T15:54:54.486Z,23.92
2018-04-07T15:57:22.947Z,24.54
2018-04-07T15:59:51.430Z,24.39
2018-04-07T16:02:19.906Z,25.01
2018-04-07T16:04:48.324Z,24.86
2018-04-07T16:07:16.736Z,23.93
2018-04-07T16:09:45.495Z,23.52
2018-04-07T16:12:13.927Z,23.99
2018-04-07T16:14:42.337Z,23.59
2018-04-07T16:17:12.684Z,23.99
2018-04-07T16:19:41.084Z,24.25
2018-04-07T16:22:09.556Z,24.02
2018-04-07T16:24:37.964Z,24.66
2018-04-07T16:27:06.472Z,23.54
2018-04-07T16:29:34.900Z,23.59
2018-04-07T16:32:03.293Z,24.01
2018-04-07T16:34:31.688Z,23.62
2018-04-07T16:37:00.099Z,22.97
2018-04-07T16:39:28.553Z,23.87
2018-04-07T16:41:56.984Z,23.28
2018-04-07T16:44:25.407Z,23.37
2018-04-07T16:46:53.812Z,23.45
2018-04-07T16:49:22.278Z,23.53
2018-04-07T16:51:50.697Z,23.44
2018-04-07T16:54:19.116Z,24.09
2018-04-07T16:56:47.527Z,23.30
2018-04-07T16:59:15.926Z,24.10
2018-04-07T17:01:45.282Z,23.83
2018-04-07T17:04:13.680Z,23.90
2018-04-07T17:06:42.095Z,23.06
2018-04-07T17:09:10.488Z,24.18
2018-04-07T17:11:38.903Z,23.94
2018-04-07T17:14:07.300Z,23.42
2018-04-07T17:16:35.700Z,23.67
2018-04-07T17:19:04.111Z,23.62
2018-04-07T17:21:32.517Z,23.36
2018-04-07T17:24:00.964Z,22.83
2018-04-07T17:26:29.355Z,23.07
2018-04-07T17:28:57.795Z,22.97
2018-04-07T17:31:26.241Z,22.83
2018-04-07T17:33:54.657Z,22.93
2018-04-07T17:36:23.063Z,21.99
2018-04-07T17:38:51.460Z,22.24
2018-04-07T17:41:19.859Z,22.15
2018-04-07T17:43:48.453Z,22.20
2018-04-07T17:46:16.817Z,22.30
2018-04-07T17:48:45.199Z,22.57
2018-04-07T17:51:13.681Z,22.27
2018-04-07T17:53:42.063Z,22.45
2018-04-07T17:56:10.592Z,22.19
2018-04-07T17:58:38.954Z,21.77
2018-04-07T18:01:07.320Z,22.19
2018-04-07T18:03:35.695Z,22.10
2018-04-07T18:06:04.091Z,21.75
2018-04-07T18:08:32.535Z,21.89
2018-04-07T18:11:01.012Z,22.07
2018-04-07T18:13:29.363Z,22.18
2018-04-07T18:15:57.762Z,21.45
2018-04-07T18:18:26.171Z,21.65
2018-04-07T18:20:54.555Z,22.24
2018-04-07T18:23:22.957Z,21.74
2018-04-07T18:25:51.348Z,21.89
2018-04-07T18:28:19.815Z,21.83
2018-04-07T18:30:48.207Z,21.58
2018-04-07T18:33:16.666Z,22.31
2018-04-07T18:35:45.027Z,21.72
2018-04-07T18:38:13.402Z,21.40
2018-04-07T18:40:41.772Z,21.53
2018-04-07T18:43:10.182Z,21.58
2018-04-07T18:45:38.589Z,21.24
2018-04-07T18:48:06.954Z,20.92
2018-04-07T18:50:35.337Z,21.49
2018-04-07T18:53:03.757Z,21.38
2018-04-07T18:55:32.131Z,21.17
2018-04-07T18:58:00.666Z,21.25
2018-04-07T19:00:29.148Z,20.47
2018-04-07T19:02:57.575Z,20.62
2018-04-07T19:05:25.954Z,21.00
2018-04-07T19:07:54.367Z,20.86
2018-04-07T19:10:22.838Z,20.92
2018-04-07T19:12:51.390Z,21.11
2018-04-07T19:15:19.892Z,21.55
2018-04-07T19:17:49.010Z,21.51
2018-04-07T19:20:17.421Z,21.68
2018-04-07T19:22:45.873Z,21.51
2018-04-07T19:25:14.303Z,21.90
2018-04-07T19:27:42.703Z,20.79
2018-04-07T19:30:11.108Z,20.65
2018-04-07T19:32:39.675Z,20.66
2018-04-07T19:35:08.077Z,20.90
2018-04-07T19:37:36.457Z,21.26
2018-04-07T19:40:04.929Z,21.86
2018-04-07T19:42:34.200Z,20.94
2018-04-07T19:45:02.569Z,21.15
2018-04-07T19:47:30.931Z,21.22
2018-04-07T19:49:59.435Z,20.99
2018-04-07T19:52:27.986Z,21.12
2018-04-07T19:54:56.351Z,22.10
2018-04-07T19:57:24.714Z,21.22
2018-04-07T19:59:53.095Z,21.06
2018-04-07T20:02:21.493Z,21.09
2018-04-07T20:04:49.906Z,21.79
2018-04-07T20:07:18.286Z,22.13
2018-04-07T20:09:46.845Z,22.27
2018-04-07T20:12:15.230Z,22.24
2018-04-07T20:14:43.597Z,21.51
2018-04-07T20:17:12.109Z,21.47
2018-04-07T20:19:40.479Z,20.93
2018-04-07T20:22:08.943Z,21.93
2018-04-07T20:24:37.381Z,21.15
2018-04-07T20:27:05.760Z,21.60
2018-04-07T20:29:34.160Z,21.39
2018-04-07T20:32:02.557Z,21.30
2018-04-07T20:34:30.940Z,20.77
2018-04-07T20:36:59.295Z,20.68
2018-04-07T20:39:27.666Z,20.63
2018-04-07T20:42:11.482Z,20.81
2018-04-07T20:44:41.895Z,20.85
2018-04-07T20:47:10.443Z,19.97
2018-04-07T20:49:38.836Z,19.98
2018-04-07T20:52:07.210Z,20.59
2018-04-07T20:54:35.660Z,21.00
2018-04-07T20:57:04.047Z,21.13
2018-04-07T20:59:32.430Z,21.30
2018-04-07T21:02:00.863Z,20.80
2018-04-07T21:04:29.353Z,21.24
2018-04-07T21:06:57.768Z,20.83
2018-04-07T21:09:26.227Z,20.60
2018-04-07T21:11:54.621Z,21.06
2018-04-07T21:14:23.185Z,20.77
2018-04-07T21:16:51.580Z,21.08
2018-04-07T21:19:19.982Z,20.37
2018-04-07T21:21:48.369Z,20.35
2018-04-07T21:24:16.819Z,20.18
2018-04-07T21:26:45.339Z,20.61
2018-04-07T21:29:13.743Z,20.48
2018-04-07T21:31:42.178Z,20.89
2018-04-07T21:34:10.591Z,20.95
2018-04-07T21:36:38.967Z,20.51
2018-04-07T21:39:07.399Z,20.76
2018-04-07T21:41:35.807Z,20.48
2018-04-07T21:44:04.260Z,20.39
2018-04-07T21:46:32.679Z,20.21
2018-04-07T21:49:01.066Z,20.37
2018-04-07T21:51:29.459Z,19.89
2018-04-07T21:53:57.868Z,20.12
2018-04-07T21:56:26.325Z,19.78
2018-04-07T21:58:54.709Z,19.87
2018-04-07T22:01:23.108Z,20.13
2018-04-07T22:03:51.606Z,19.64
2018-04-07T22:06:19.999Z,19.51
2018-04-07T22:08:48.448Z,19.74
2018-04-07T22:11:16.893Z,19.58
2018-04-07T22:13:45.290Z,19.41
2018-04-07T22:16:14.076Z,19.55
2018-04-07T22:18:42.467Z,19.43
2018-04-07T22:21:10.970Z,19.52
2018-04-07T22:23:39.368Z,19.48
2018-04-07T22:26:07.763Z,19.82
2018-04-07T22:28:36.145Z,19.95
2018-04-07T22:31:04.554Z,19.74
2018-04-07T22:33:32.975Z,19.94
2018-04-07T22:36:01.413Z,19.69
2018-04-07T22:38:29.784Z,20.01
2018-04-07T22:40:58.189Z,19.91
2018-04-07T22:43:26.539Z,19.63
2018-04-07T22:45:55.128Z,19.56
2018-04-07T22:48:23.487Z,19.39
2018-04-07T22:50:51.868Z,19.28
2018-04-07T22:53:20.258Z,19.52
2018-04-07T22:55:48.614Z,19.20
2018-04-07T22:58:17.134Z,19.68
2018-04-07T23:00:45.587Z,19.39
2018-04-07T23:03:13.965Z,19.64
2018-04-07T23:05:42.332Z,19.46
2018-04-07T23:08:10.688Z,19.97
2018-04-07T23:10:39.135Z,20.19
2018-04-07T23:13:07.515Z,20.57
2018-04-07T23:15:35.908Z,19.78
2018-04-07T23:18:04.307Z,19.64
2018-04-07T23:20:32.692Z,19.90
2018-04-07T23:23:01.133Z,19.34
2018-04-07T23:25:29.483Z,19.60
2018-04-07T23:27:57.883Z,19.81
2018-04-07T23:30:26.285Z,19.37
2018-04-07T23:32:54.642Z,19.74
2018-04-07T23:35:23.038Z,19.44
2018-04-07T23:37:51.430Z,19.50
2018-04-07T23:40:19.826Z,19.04
2018-04-07T23:42:48.212Z,19.28
2018-04-07T23:45:16.612Z,19.43
2018-04-07T23:47:45.210Z,20.12
2018-04-07T23:50:14.502Z,19.77
2018-04-07T23:52:42.897Z,20.19
2018-04-07T23:55:11.293Z,20.10
2018-04-07T23:57:39.687Z,19.85
